Tupper Lake, NY (12986)

10:20 AM EDT on July 25, 2017 (GMT -0400)
French Village | | Change Station

Elev 1621 ft 44.22 °N, 74.46 °W | Updated 2 seconds ago

Overcast
Overcast
57.4 °F
Feels Like 57.4 °F
N
0.7
Wind Variable Wind from ESE
Gusts 3.1 mph

Today
High -- | Low -- °F
--% Chance of Precip.
Yesterday
High -- | Low -- °F
Precip. -- in
Pressure 30.11 in
Visibility 10.0 miles
Clouds Overcast 600 ft
Dew Point 56 °F
Humidity 96%
Rainfall 0.08 in
Snow Depth Not available.
5:38 AM 8:29 PM
Waxing Crescent, 6% visible
METAR KSLK 251351Z AUTO 06006KT 10SM OVC006 12/12 A3010 RMK AO2 RAE05 CIG 004V010 SLP196 P0000 T01220122
Pressure 30.11 in
Visibility 10.0 miles
Clouds Overcast 600 ft
Dew Point 56 °F
Humidity 96%
Rainfall 0.08 in
Snow Depth Not available.
5:38 AM 8:29 PM
Waxing Crescent, 6% visible
METAR KSLK 251351Z AUTO 06006KT 10SM OVC006 12/12 A3010 RMK AO2 RAE05 CIG 004V010 SLP196 P0000 T01220122

Get Severe Weather Alerts

Thanks for signing up!

Be on the lookout for a verification email in your inbox.

You'll start receiving the daily forecast at 6 AM.

×

10-Day Weather Forecast

Almanac

Astronomy

Jul. 25, 2017 Rise Set
Actual Time
Civil Twilight
Nautical Twilight
Astronomical Twilight
Moon
Length of Visible Light
Length of Day
Tomorrow will be .
, % of the Moon is Illuminated

Today's Extremes

State Highs State Lows

Community

WunderPhotos

Category 6

Welcome to Category 6. This is the collective home for Weather Underground's featured writeups by Dr. Jeff Masters (right), Bob Henson (left), Chris Burt, and other regular contributors.

Nearby

Air Quality

  Air Quality AQ Index Pollutant
Not available.

Snow Depth

Station Depth Elevation

Earthquake Activity

City Distance Mag. Time & Date
Minimum magnitude displayed is 2.5.

Coastal Water Temperatures

Place Temperature

Stations

Nearby Weather Stations

Station Location Temp. Windchill Dew Point Humidity Wind Precip. Elev Updated Type
                   

Watches & Warnings

There are currently no watches in effect.